createdAt,value
2023-03-23T16:01:31.546Z,50.96
2023-03-23T16:06:26.797Z,50.92
2023-03-23T16:11:20.202Z,51.12
2023-03-23T16:16:35.864Z,51.16
2023-03-23T16:21:28.855Z,51.19
2023-03-23T16:26:21.970Z,51.28
2023-03-23T16:31:15.053Z,51.49
2023-03-23T16:36:09.571Z,51.61
2023-03-23T16:41:04.366Z,51.70
2023-03-23T16:45:58.258Z,52.38
2023-03-23T16:50:52.735Z,52.15
2023-03-23T16:55:48.957Z,52.44
2023-03-23T17:00:42.927Z,52.48
2023-03-23T17:05:37.697Z,52.64
2023-03-23T17:10:31.755Z,52.49
2023-03-23T17:15:26.458Z,52.66
2023-03-23T17:20:19.070Z,52.68
2023-03-23T17:25:12.183Z,52.48
2023-03-23T17:30:08.220Z,52.57
2023-03-23T17:35:02.323Z,52.54
2023-03-23T17:39:55.563Z,52.48
2023-03-23T17:44:48.441Z,52.71
2023-03-23T17:49:42.364Z,52.76
2023-03-23T17:54:35.251Z,52.68
2023-03-23T17:59:30.177Z,53.06
2023-03-23T18:04:23.104Z,52.72
2023-03-23T18:09:16.507Z,52.65
2023-03-23T18:14:09.330Z,52.99
2023-03-23T18:19:01.968Z,53.30
2023-03-23T18:23:59.870Z,54.09
2023-03-23T18:28:53.825Z,55.31
2023-03-23T18:33:51.614Z,55.23
2023-03-23T18:38:46.949Z,54.94
2023-03-23T18:43:39.754Z,55.02
2023-03-23T18:48:33.666Z,54.22
2023-03-23T18:53:27.823Z,54.21
2023-03-23T18:58:21.322Z,54.79
2023-03-23T19:03:15.606Z,55.01
2023-03-23T19:08:09.706Z,54.96
2023-03-23T19:13:01.913Z,55.05
2023-03-23T19:17:56.857Z,54.91
2023-03-23T19:22:50.281Z,54.43
2023-03-23T19:28:30.720Z,53.49
2023-03-23T19:32:57.232Z,52.78
2023-03-23T19:37:51.460Z,52.61
2023-03-23T19:42:45.301Z,52.03
2023-03-23T19:47:38.377Z,52.24
2023-03-23T19:52:31.870Z,51.81
2023-03-23T19:57:25.437Z,51.64
2023-03-23T20:02:19.491Z,49.05
2023-03-23T20:07:13.442Z,49.40
2023-03-23T20:12:06.967Z,50.28
2023-03-23T20:17:00.808Z,50.05
2023-03-23T20:21:54.280Z,47.60
2023-03-23T20:26:47.802Z,46.60
2023-03-23T20:31:42.676Z,46.61
2023-03-23T20:36:42.710Z,47.61
2023-03-23T20:41:39.436Z,48.31
2023-03-23T20:46:32.531Z,46.15
2023-03-23T20:51:25.430Z,48.20
2023-03-23T20:56:20.449Z,48.58
2023-03-23T21:01:13.489Z,48.49
2023-03-23T21:06:10.830Z,49.19
2023-03-23T21:11:04.807Z,49.11
2023-03-23T21:15:57.892Z,49.43
2023-03-23T21:20:52.362Z,49.91
2023-03-23T21:25:46.934Z,50.09
2023-03-23T21:30:45.307Z,50.74
2023-03-23T21:35:42.913Z,51.04
2023-03-23T21:40:36.836Z,51.41
2023-03-23T21:45:29.929Z,52.02
2023-03-23T21:50:24.227Z,52.50
2023-03-23T21:55:18.822Z,52.23
2023-03-23T22:00:15.556Z,52.78
2023-03-23T22:05:08.229Z,52.94
2023-03-23T22:10:01.346Z,53.02
2023-03-23T22:14:54.718Z,53.27
2023-03-23T22:19:51.846Z,53.19
2023-03-23T22:24:45.076Z,53.24
2023-03-23T22:29:38.404Z,53.20
2023-03-23T22:34:33.161Z,53.28
2023-03-23T22:39:26.452Z,53.44
2023-03-23T22:44:20.109Z,53.58
2023-03-23T22:49:13.572Z,53.49
2023-03-23T22:54:06.695Z,53.69
2023-03-23T22:59:00.446Z,54.05
2023-03-23T23:03:53.784Z,54.15
2023-03-23T23:08:48.642Z,53.64
2023-03-23T23:13:42.357Z,54.09
2023-03-23T23:18:36.565Z,53.79
2023-03-23T23:23:29.867Z,54.23
2023-03-23T23:28:23.675Z,53.80
2023-03-23T23:33:16.542Z,53.66
2023-03-23T23:38:11.067Z,54.11
2023-03-23T23:43:05.216Z,53.76
2023-03-23T23:47:59.254Z,53.98
2023-03-23T23:52:52.635Z,53.87
2023-03-23T23:57:47.111Z,54.04
